Terminal Aerodrome Forecast
Issued by NWS Jackson, KY

Home | Current Version | Previous Version | Text Only | Print | Product List | Glossary On
Versions: 1 2 3 4 5 6 7 8 9 10 11 12 13 14 15 16 17 18
273
FTUS43 KJKL 230456 AAC
TAFLOZ
TAF AMD
KLOZ 230456Z 2305/2324 05009KT P6SM VCSH OVC010
      TEMPO 2305/2307 04010G17KT 2SM -SHRA BR BKN004
     FM231300 04009KT 3SM SHRA OVC010
     FM231800 03008KT 6SM -SHRA OVC008=

USA.gov is the U.S. government's official web portal to all federal, state and local government web resources and services.